Caraquet, Canada
Current Conditions -  °F | °C
As of 10:00 AM on Friday 31 Oct 2014 (Local Time) from CZBF Reporting Station
Few Clouds Few Clouds  
Wind Chill: 36°   Ceiling: Unl
Heat Index: 39°   Visibility: 15mi
Dew Point: 28°   Wind: 5mph
Humidity: 65%   Direction: 290°WNW
Pressure: 30.04"   Gusts: NA
Location:  47.78°N, 64.95°W
Report Text: CZBF 311300Z 29004KT 240V320 15SM FEW050 FEW220 04/M02 A3004 RMK SC1CI1 SLP176
Loading
Personal Weather Stations






























Interactive Weather Map New forecast layout! Learn more

10-Day Weather Forecast

Advertisements
Track Severe Weather on mobile